Greenville-Spartanburg International Airport Airport (GSP)

 

Airport Diagram
Current Weather/Forecast (VFR Conditions)
METAR KGSP 131153Z 03005KT 10SM CLR 20/17 A3014 RMK AO2 SLP195 T02000172 10222 20183 53012
TAF KGSP 131130Z 1312/1412 04007KT P6SM SCT080 FM131700 07006KT P6SM FEW070 FM140100 06004KT P6SM FEW250 FM141000 03003KT P6SM FEW080 SCT250

All Charts
General
Chart Name Download
AIRPORT DIAGRAM
TAKEOFF MINIMUMS
ALTERNATE MINIMUMS

Departures
Chart Name Download
BIMMR THREE (RNAV)
BWALL TWO (RNAV)

Arrivals
Chart Name Download
JUNNR THREE (RNAV)
MCHLN TWO (RNAV)
RCTOR TWO (RNAV)
WORXS TWO (RNAV)

Approaches
Chart Name Download
ILS OR LOC RWY 04
ILS OR LOC RWY 22
ILS RWY 04 (SA CAT I)
ILS RWY 04 (CAT II - III)
RNAV (GPS) RWY 04
RNAV (GPS) RWY 22


Inbound Traffic (Arrivals)

No inbound traffic.


Outbound Traffic (Departures)

No outbound traffic.